Time;durP1;ratioP1;P1;durP2;ratioP2;P2;SDS_P1;SDS_P2;PMS_P1;PMS_P2;Temp;Humidity;BMP_temperature;BMP_pressure;BME280_temperature;BME280_humidity;BME280_pressure;Samples;Min_cycle;Max_cycle;Signal;HPM_P1;HPM_P2
2022/01/28 00:01:45;;;;;;;127.55;68.32;;;77.70;2227.20;;;;;;5069400;28;20016;-55
2022/01/28 00:04:15;;;;;;;94.13;52.58;;;77.60;2227.20;;;;;;5071814;28;20539;-54
2022/01/28 00:06:41;;;;;;;108.88;68.10;;;77.60;2227.20;;;;;;5071864;28;20064;-64
2022/01/28 00:09:07;;;;;;;81.75;43.72;;;102.50;2227.20;;;;;;5072150;28;20068;-62
2022/01/28 00:11:33;;;;;;;47.85;26.05;;;77.70;2227.20;;;;;;5072719;28;20027;-56
2022/01/28 00:14:14;;;;;;;56.17;31.92;;;77.70;2227.20;;;;;;5072722;28;20078;-54
2022/01/28 00:38:28;;;;;;;28.90;15.88;;;52.00;2227.20;;;;;;5073052;28;20024;-56
2022/01/28 00:40:53;;;;;;;23.80;13.05;;;76.80;2227.20;;;;;;5072536;28;20052;-55
2022/01/28 00:43:19;;;;;;;79.93;39.00;;;51.90;2227.20;;;;;;5072538;28;20052;-55
2022/01/28 00:45:45;;;;;;;121.68;54.78;;;52.10;2227.20;;;;;;5072439;28;20090;-59
2022/01/28 00:48:11;;;;;;;79.28;37.30;;;76.80;2227.20;;;;;;5072264;28;20071;-52
2022/01/28 00:50:36;;;;;;;131.95;61.97;;;76.90;2227.20;;;;;;5072274;28;20398;-56
2022/01/28 00:53:02;;;;;;;152.60;76.25;;;77.00;2227.20;;;;;;5072601;28;20036;-58
2022/01/28 00:55:28;;;;;;;45.72;24.40;;;77.00;2227.20;;;;;;5072310;28;20032;-58
2022/01/28 00:57:54;;;;;;;24.15;14.23;;;77.00;2227.20;;;;;;5072412;28;20026;-55
2022/01/28 01:00:20;;;;;;;82.90;43.15;;;77.10;2227.20;;;;;;5072412;28;20029;-59
2022/01/28 01:02:46;;;;;;;53.80;29.67;;;77.20;2227.20;;;;;;5072218;28;20024;-58
2022/01/28 01:05:11;;;;;;;99.03;53.88;;;77.30;2227.20;;;;;;5072283;28;20051;-56
2022/01/28 01:07:38;;;;;;;340.13;202.02;;;77.30;2227.20;;;;;;5072075;28;20035;-56
2022/01/28 01:10:06;;;;;;;121.55;70.85;;;51.80;2227.20;;;;;;5071610;28;20032;-54
2022/01/28 01:12:35;;;;;;;151.38;86.38;;;51.40;2227.20;;;;;;5072204;28;20056;-55
2022/01/28 01:15:00;;;;;;;116.72;66.32;;;51.40;2227.20;;;;;;5072272;28;20024;-61
2022/01/28 01:17:37;;;;;;;232.70;127.47;;;51.70;2227.20;;;;;;5071819;28;20082;-56
2022/01/28 01:22:53;;;;;;;183.50;103.05;;;51.60;2227.20;;;;;;5071730;28;20028;-56
2022/01/28 01:25:25;;;;;;;179.18;100.10;;;51.80;2227.20;;;;;;5071927;28;20059;-61
2022/01/28 01:27:55;;;;;;;203.85;108.40;;;52.00;2227.20;;;;;;5072003;28;20032;-56
2022/01/28 01:30:21;;;;;;;213.13;121.13;;;52.00;2227.20;;;;;;5071555;28;20466;-55
2022/01/28 01:32:47;;;;;;;204.55;113.35;;;52.00;2227.20;;;;;;5071453;28;20032;-55
2022/01/28 01:35:13;;;;;;;195.40;110.45;;;51.80;2227.20;;;;;;5071518;28;20036;-55
2022/01/28 01:37:38;;;;;;;154.63;86.40;;;51.90;2227.20;;;;;;5071536;28;20027;-55
2022/01/28 01:40:06;;;;;;;130.32;73.95;;;51.80;2227.20;;;;;;5071671;28;20054;-58
2022/01/28 01:42:55;;;;;;;192.02;107.07;;;51.90;2227.20;;;;;;5071584;28;20033;-58
2022/01/28 01:53:38;;;;;;;184.18;101.55;;;52.10;2227.20;;;;;;5029191;28;20036;-55
2022/01/28 01:56:04;;;;;;;114.13;63.45;;;76.90;2227.20;;;;;;5062288;28;20033;-55
2022/01/28 01:58:31;;;;;;;172.23;88.55;;;76.80;2227.20;;;;;;5071093;28;20028;-55
2022/01/28 02:01:01;;;;;;;104.78;57.75;;;76.90;2227.20;;;;;;5071108;28;20059;-54
2022/01/28 02:03:29;;;;;;;56.08;32.60;;;77.20;2227.20;;;;;;5071023;28;20097;-54
2022/01/28 02:05:57;;;;;;;62.38;33.28;;;77.50;2227.20;;;;;;5070767;28;20032;-54
2022/01/28 02:08:26;;;;;;;86.63;47.53;;;77.60;2227.20;;;;;;5070747;28;20466;-56
2022/01/28 02:10:57;;;;;;;155.13;82.75;;;77.50;2227.20;;;;;;5070875;28;20032;-60
2022/01/28 02:13:24;;;;;;;188.25;103.00;;;77.40;2227.20;;;;;;5070963;28;20405;-55
2022/01/28 02:15:49;;;;;;;64.63;34.97;;;77.50;2227.20;;;;;;5071113;28;20024;-62
2022/01/28 02:18:15;;;;;;;82.70;44.50;;;77.70;2227.20;;;;;;5070418;28;20031;-60
2022/01/28 02:20:43;;;;;;;80.78;45.28;;;77.50;2227.20;;;;;;5070300;28;20112;-55
2022/01/28 02:23:09;;;;;;;46.13;26.30;;;77.20;2227.20;;;;;;5070684;28;20039;-58
2022/01/28 02:25:35;;;;;;;82.75;45.78;;;77.00;2227.20;;;;;;5070686;28;20099;-54
2022/01/28 02:28:05;;;;;;;65.88;32.92;;;76.80;2227.20;;;;;;5070582;28;20111;-54
2022/01/28 02:30:32;;;;;;;115.93;63.92;;;52.10;2227.20;;;;;;5070697;28;20439;-54
2022/01/28 02:33:09;;;;;;;73.78;43.30;;;52.10;2227.20;;;;;;5070407;28;20462;-55
2022/01/28 02:35:36;;;;;;;75.97;46.33;;;52.10;2227.20;;;;;;5070676;28;20035;-58
2022/01/28 02:38:02;;;;;;;69.63;37.65;;;52.10;2227.20;;;;;;5070615;28;20028;-56
2022/01/28 02:40:28;;;;;;;69.63;40.08;;;76.80;2227.20;;;;;;5070352;28;20024;-56
2022/01/28 02:45:37;;;;;;;37.88;23.35;;;52.00;2227.20;;;;;;5070450;28;20125;-55
2022/01/28 02:48:08;;;;;;;50.03;27.05;;;51.90;2227.20;;;;;;5070186;28;20025;-55
2022/01/28 02:50:42;;;;;;;45.10;24.63;;;51.60;2227.20;;;;;;5070209;28;20379;-55
2022/01/28 02:53:19;;;;;;;38.50;22.20;;;51.70;2227.20;;;;;;5070134;28;20024;-57
2022/01/28 02:55:45;;;;;;;58.42;29.02;;;51.80;2227.20;;;;;;5070454;28;20024;-55
2022/01/28 02:58:23;;;;;;;69.03;34.70;;;51.90;2227.20;;;;;;5070348;28;20400;-55
2022/01/28 03:00:49;;;;;;;83.78;41.55;;;51.80;2227.20;;;;;;5070234;28;20055;-55
2022/01/28 03:03:18;;;;;;;53.97;31.17;;;51.90;2227.20;;;;;;5069995;28;20036;-54
2022/01/28 03:05:45;;;;;;;54.55;31.23;;;51.90;2227.20;;;;;;5069999;28;20021;-56
2022/01/28 03:08:12;;;;;;;55.95;30.05;;;52.00;2227.20;;;;;;5070128;28;20050;-53
2022/01/28 03:15:55;;;;;;;64.15;34.55;;;52.00;2227.20;;;;;;5028022;28;20044;-55
2022/01/28 03:18:28;;;;;;;18.05;8.55;;;51.90;2227.20;;;;;;5027751;28;20061;-54
2022/01/28 03:23:20;;;;;;;13.27;7.15;;;52.10;2227.20;;;;;;5027950;28;20053;-56
2022/01/28 03:25:47;;;;;;;36.75;19.85;;;76.80;2227.20;;;;;;5027861;28;20053;-55
2022/01/28 03:28:15;;;;;;;28.95;15.60;;;76.80;2227.20;;;;;;5027988;28;20033;-54
2022/01/28 03:30:41;;;;;;;38.00;22.60;;;76.90;2227.20;;;;;;5027879;28;20049;-55
2022/01/28 03:33:07;;;;;;;37.72;21.33;;;76.90;2227.20;;;;;;5030727;28;20033;-56
2022/01/28 03:35:34;;;;;;;56.08;32.55;;;76.90;2227.20;;;;;;5032059;28;20053;-54
2022/01/28 03:38:02;;;;;;;65.93;33.35;;;76.80;2227.20;;;;;;5031734;28;20048;-54
2022/01/28 03:40:33;;;;;;;36.10;21.23;;;76.80;2227.20;;;;;;5031589;28;20041;-54
2022/01/28 03:42:59;;;;;;;39.60;20.15;;;52.00;2227.20;;;;;;5031768;28;20064;-55
2022/01/28 03:45:25;;;;;;;62.42;33.55;;;76.90;2227.20;;;;;;5031502;28;20037;-54
2022/01/28 03:47:51;;;;;;;25.77;14.82;;;76.80;2227.20;;;;;;5031200;28;20034;-55
2022/01/28 03:50:17;;;;;;;62.45;36.15;;;52.00;2227.20;;;;;;5049692;28;20091;-55
2022/01/28 03:52:43;;;;;;;92.18;51.67;;;52.10;2227.20;;;;;;5074031;28;20032;-55
2022/01/28 03:55:09;;;;;;;30.92;18.90;;;52.10;2227.20;;;;;;5073585;28;20039;-55
2022/01/28 03:57:35;;;;;;;26.33;14.23;;;51.90;2227.20;;;;;;5073590;28;20075;-55
2022/01/28 04:00:00;;;;;;;20.17;10.80;;;52.00;2227.20;;;;;;5073722;28;20482;-57
2022/01/28 04:02:30;;;;;;;60.40;36.05;;;51.80;2227.20;;;;;;5073223;28;20032;-57
2022/01/28 04:12:51;;;;;;;242.15;145.40;;;52.00;2227.20;;;;;;5073453;28;20146;-53
2022/01/28 04:15:37;;;;;;;118.80;66.47;;;52.00;2227.20;;;;;;5073229;28;20024;-55
2022/01/28 04:18:03;;;;;;;49.35;28.17;;;52.00;2227.20;;;;;;5072924;28;20037;-55
2022/01/28 04:20:32;;;;;;;60.28;39.05;;;52.00;2227.20;;;;;;5073354;28;20035;-54
2022/01/28 04:22:58;;;;;;;50.55;31.33;;;52.00;2227.20;;;;;;5073187;28;20035;-56
2022/01/28 04:25:24;;;;;;;55.78;31.70;;;52.00;2227.20;;;;;;5072944;28;20054;-56
2022/01/28 04:27:50;;;;;;;56.45;38.35;;;51.90;2227.20;;;;;;5072891;28;20056;-55
2022/01/28 04:30:15;;;;;;;62.22;25.38;;;52.00;2227.20;;;;;;5072814;28;20040;-54
2022/01/28 04:32:41;;;;;;;40.33;22.75;;;51.90;2227.20;;;;;;5073087;28;20493;-54
2022/01/28 04:35:07;;;;;;;30.05;19.38;;;52.00;2227.20;;;;;;5072526;28;20454;-56
2022/01/28 04:40:17;;;;;;;16.00;10.30;;;51.80;2227.20;;;;;;5072456;28;20074;-55
2022/01/28 04:45:22;;;;;;;22.90;13.85;;;52.10;2227.20;;;;;;5072443;28;20082;-55
2022/01/28 04:53:06;;;;;;;44.25;24.52;;;76.80;2227.20;;;;;;5072536;28;20082;-55
2022/01/28 04:58:35;;;;;;;78.68;42.63;;;76.90;2227.20;;;;;;5072353;28;20046;-58
2022/01/28 05:11:47;;;;;;;24.02;12.80;;;77.20;2227.20;;;;;;5072260;28;20033;-55
2022/01/28 05:27:05;;;;;;;18.08;9.93;;;51.80;2227.20;;;;;;5071927;28;20149;-55
2022/01/28 05:29:31;;;;;;;17.30;9.93;;;51.60;2227.20;;;;;;5071724;28;20111;-55
2022/01/28 05:31:57;;;;;;;14.90;8.90;;;51.50;2227.20;;;;;;5071452;28;20059;-54
2022/01/28 05:34:27;;;;;;;16.00;8.55;;;51.40;2227.20;;;;;;5071542;28;20025;-55
2022/01/28 05:36:54;;;;;;;14.50;7.07;;;51.40;2227.20;;;;;;5071589;28;20020;-55
2022/01/28 05:39:21;;;;;;;42.00;20.75;;;51.70;2227.20;;;;;;5071990;28;20036;-56
2022/01/28 05:41:46;;;;;;;20.77;12.88;;;51.90;2227.20;;;;;;5071609;28;20032;-57
2022/01/28 05:44:12;;;;;;;22.25;11.98;;;51.90;2227.20;;;;;;5071458;28;20062;-55
2022/01/28 05:46:38;;;;;;;19.73;10.07;;;52.00;2227.20;;;;;;5071553;28;20028;-55
2022/01/28 05:49:05;;;;;;;19.25;9.35;;;52.10;2227.20;;;;;;5071020;28;20044;-55
2022/01/28 05:51:30;;;;;;;18.92;9.25;;;76.80;2227.20;;;;;;5071376;28;20048;-55
2022/01/28 05:53:59;;;;;;;18.38;11.57;;;76.80;2227.20;;;;;;5071074;28;20067;-55
2022/01/28 05:56:28;;;;;;;13.73;7.43;;;76.90;2227.20;;;;;;5070351;28;20032;-55
2022/01/28 05:58:55;;;;;;;14.15;9.18;;;77.00;2227.20;;;;;;5071020;28;20111;-55
2022/01/28 06:01:21;;;;;;;12.43;7.90;;;77.20;2227.20;;;;;;5071278;28;20028;-57
2022/01/28 06:03:47;;;;;;;8.60;6.03;;;77.20;2227.20;;;;;;5070870;28;20025;-55
2022/01/28 06:06:20;;;;;;;16.95;11.80;;;77.30;2227.20;;;;;;5070871;28;20028;-55
2022/01/28 06:08:54;;;;;;;12.00;6.70;;;77.30;2227.20;;;;;;5070634;28;20520;-55
2022/01/28 06:11:21;;;;;;;15.82;10.15;;;77.30;2227.20;;;;;;5070918;28;20029;-55
2022/01/28 06:13:47;;;;;;;19.45;11.48;;;77.60;2227.20;;;;;;5070685;28;20029;-55
2022/01/28 06:16:14;;;;;;;19.10;10.40;;;77.60;2227.20;;;;;;5071020;28;20500;-55
2022/01/28 06:18:40;;;;;;;52.60;33.72;;;77.70;2227.20;;;;;;5070759;28;20028;-56
2022/01/28 06:21:06;;;;;;;47.72;33.42;;;77.70;2227.20;;;;;;5070642;28;20056;-55
2022/01/28 06:23:33;;;;;;;59.28;33.65;;;77.50;2227.20;;;;;;5071025;28;20028;-55
2022/01/28 06:25:59;;;;;;;20.15;12.93;;;77.60;2227.20;;;;;;5070946;28;20033;-56
2022/01/28 06:28:25;;;;;;;21.50;11.63;;;77.60;2227.20;;;;;;5070610;28;20515;-55
2022/01/28 06:30:51;;;;;;;71.45;42.00;;;77.70;2227.20;;;;;;5070954;28;20036;-59
2022/01/28 06:33:16;;;;;;;75.93;48.95;;;77.70;2227.20;;;;;;5070341;28;20032;-61
2022/01/28 06:35:44;;;;;;;49.33;31.92;;;102.40;2227.20;;;;;;5070536;28;20048;-58
2022/01/28 06:38:10;;;;;;;37.00;22.13;;;102.50;2227.20;;;;;;5070490;28;20436;-60
2022/01/28 06:40:36;;;;;;;36.40;24.80;;;102.50;2227.20;;;;;;5070411;28;20024;-65
2022/01/28 06:43:02;;;;;;;30.83;19.48;;;102.50;2227.20;;;;;;5070638;28;20103;-67
2022/01/28 06:45:27;;;;;;;23.20;14.02;;;102.50;2227.20;;;;;;5070149;28;20028;-59
2022/01/28 06:47:53;;;;;;;55.45;41.88;;;102.50;2227.20;;;;;;5069946;28;20025;-61
2022/01/28 06:50:19;;;;;;;39.97;24.42;;;102.60;2227.20;;;;;;5070108;28;20051;-60
2022/01/28 06:52:45;;;;;;;24.35;16.13;;;102.90;2227.20;;;;;;5069949;28;20052;-60
2022/01/28 06:55:14;;;;;;;41.80;29.05;;;102.90;2227.20;;;;;;5070323;28;20484;-62
2022/01/28 06:57:40;;;;;;;29.48;17.55;;;103.00;2227.20;;;;;;5070307;28;20027;-59
2022/01/28 07:00:07;;;;;;;27.67;17.20;;;103.30;2227.20;;;;;;5070059;28;20031;-59
2022/01/28 07:02:33;;;;;;;35.90;19.65;;;103.20;2227.20;;;;;;5070150;28;20052;-61
2022/01/28 07:04:59;;;;;;;52.42;31.35;;;103.20;2227.20;;;;;;5070023;28;20032;-60
2022/01/28 07:07:26;;;;;;;44.63;24.33;;;103.20;2227.20;;;;;;5069510;28;20021;-60
2022/01/28 07:09:52;;;;;;;22.08;13.15;;;103.30;2227.20;;;;;;5070312;28;20032;-59
2022/01/28 07:12:18;;;;;;;26.80;14.15;;;103.30;2227.20;;;;;;5069883;28;20382;-59
2022/01/28 07:14:45;;;;;;;24.60;13.43;;;103.30;2227.20;;;;;;5069876;28;20104;-60
2022/01/28 07:17:10;;;;;;;23.80;13.13;;;128.00;2252.80;;;;;;5069988;28;20059;-61
2022/01/28 07:19:36;;;;;;;23.05;11.23;;;128.10;2252.80;;;;;;5069901;28;20060;-59
2022/01/28 07:22:03;;;;;;;20.63;11.52;;;128.10;2252.80;;;;;;5070115;28;20099;-60
2022/01/28 07:24:29;;;;;;;19.42;12.48;;;103.30;2227.20;;;;;;5069949;28;20382;-60
2022/01/28 07:26:55;;;;;;;18.80;11.00;;;103.20;2227.20;;;;;;5070003;28;20021;-58
2022/01/28 07:29:22;;;;;;;21.13;11.32;;;103.10;2227.20;;;;;;5070001;28;20090;-59
2022/01/28 07:31:48;;;;;;;20.13;12.57;;;103.20;2227.20;;;;;;5069872;28;20383;-60
2022/01/28 07:34:14;;;;;;;28.52;16.42;;;103.20;2227.20;;;;;;5069713;28;20025;-59
2022/01/28 07:36:40;;;;;;;20.25;12.77;;;103.20;2227.20;;;;;;5069888;28;20382;-60
2022/01/28 07:39:07;;;;;;;23.60;13.63;;;103.10;2227.20;;;;;;5069677;28;20552;-60
2022/01/28 07:41:34;;;;;;;21.20;12.80;;;103.10;2227.20;;;;;;5070077;28;20029;-60
2022/01/28 07:44:00;;;;;;;19.83;10.50;;;103.30;2227.20;;;;;;5069975;28;20020;-60
2022/01/28 07:46:25;;;;;;;18.80;10.93;;;128.00;2252.80;;;;;;5069786;28;20024;-59
2022/01/28 07:48:51;;;;;;;15.93;10.38;;;128.00;2252.80;;;;;;5069319;28;20056;-61
2022/01/28 07:51:17;;;;;;;23.23;11.90;;;128.20;2252.80;;;;;;5069512;28;20091;-60
2022/01/28 07:53:43;;;;;;;21.30;12.95;;;128.20;2252.80;;;;;;5069773;28;20126;-60
2022/01/28 07:56:11;;;;;;;33.90;22.08;;;128.10;2252.80;;;;;;5070007;28;20037;-64
2022/01/28 07:58:37;;;;;;;57.00;32.45;;;103.10;2227.20;;;;;;5069613;28;20025;-60
2022/01/28 08:01:03;;;;;;;38.72;25.05;;;103.30;2227.20;;;;;;5070064;28;20020;-60
2022/01/28 08:03:29;;;;;;;55.65;39.08;;;128.10;2252.80;;;;;;5069580;28;20036;-60
2022/01/28 08:05:54;;;;;;;22.33;13.20;;;128.20;2252.80;;;;;;5069446;28;20025;-60
2022/01/28 08:08:21;;;;;;;24.95;16.08;;;128.30;2252.80;;;;;;5069646;28;20078;-60
2022/01/28 08:10:47;;;;;;;206.13;112.28;;;128.20;2252.80;;;;;;5069265;28;20394;-59
2022/01/28 08:13:13;;;;;;;60.25;36.72;;;128.20;2252.80;;;;;;5069817;28;20021;-63
2022/01/28 08:15:40;;;;;;;49.53;30.67;;;128.40;2252.80;;;;;;5069799;28;20033;-61
2022/01/28 08:18:07;;;;;;;69.40;58.15;;;128.60;2252.80;;;;;;5069503;28;20051;-70
2022/01/28 08:20:33;;;;;;;41.05;25.98;;;128.70;2252.80;;;;;;5073257;28;20032;-64
2022/01/28 08:23:00;;;;;;;23.67;14.35;;;128.90;2252.80;;;;;;5073180;28;20035;-67
2022/01/28 08:25:28;;;;;;;25.95;20.52;;;128.90;2252.80;;;;;;5072950;28;20066;-66
2022/01/28 08:27:54;;;;;;;37.40;25.02;;;128.90;2252.80;;;;;;5072923;28;20070;-64
2022/01/28 08:30:22;;;;;;;37.10;22.67;;;128.90;2252.80;;;;;;5072865;28;20397;-71
2022/01/28 08:32:49;;;;;;;38.92;25.02;;;153.60;2252.80;;;;;;5072907;28;20029;-60
2022/01/28 08:35:16;;;;;;;36.30;21.85;;;153.70;2252.80;;;;;;5072522;28;20036;-59
2022/01/28 08:37:42;;;;;;;31.08;18.35;;;153.80;2252.80;;;;;;5072794;28;20047;-59
2022/01/28 08:40:09;;;;;;;35.40;20.10;;;153.70;2252.80;;;;;;5072597;28;20462;-59
2022/01/28 08:42:35;;;;;;;30.08;19.10;;;153.80;2252.80;;;;;;5072651;28;20017;-60
2022/01/28 08:45:01;;;;;;;27.40;19.17;;;153.70;2252.80;;;;;;5072659;28;20454;-67
2022/01/28 08:47:27;;;;;;;23.00;16.35;;;153.80;2252.80;;;;;;5072413;28;20029;-63
2022/01/28 08:49:53;;;;;;;25.02;19.02;;;154.00;2252.80;;;;;;5072495;28;20177;-62
2022/01/28 08:52:19;;;;;;;24.88;18.15;;;154.10;2252.80;;;;;;5072494;28;20466;-67
2022/01/28 08:54:45;;;;;;;36.22;21.40;;;154.00;2252.80;;;;;;5072584;28;20024;-59
2022/01/28 08:57:10;;;;;;;53.15;34.35;;;154.10;2252.80;;;;;;5072473;28;20363;-69
2022/01/28 08:59:39;;;;;;;58.45;36.47;;;154.00;2252.80;;;;;;5072275;28;20036;-59
2022/01/28 09:02:05;;;;;;;52.58;33.15;;;153.90;2252.80;;;;;;5072272;28;20033;-60
2022/01/28 09:04:31;;;;;;;29.33;18.55;;;153.90;2252.80;;;;;;5072405;28;20153;-59
2022/01/28 09:06:57;;;;;;;34.47;21.13;;;154.10;2252.80;;;;;;5071998;28;20470;-69
2022/01/28 09:09:22;;;;;;;39.28;19.15;;;154.40;2252.80;;;;;;5072320;28;20044;-62
2022/01/28 09:12:04;;;;;;;99.15;68.50;;;154.50;2252.80;;;;;;5071876;28;20462;-60
2022/01/28 09:14:30;;;;;;;49.05;33.97;;;154.50;2252.80;;;;;;5072171;28;20036;-59
2022/01/28 09:16:56;;;;;;;25.75;17.38;;;154.50;2252.80;;;;;;5071980;28;20040;-60
2022/01/28 09:19:23;;;;;;;61.25;41.58;;;179.20;2252.80;;;;;;5071870;28;20051;-60
2022/01/28 09:21:50;;;;;;;23.15;16.30;;;179.40;2252.80;;;;;;5071745;28;20056;-59
2022/01/28 09:24:16;;;;;;;25.13;17.63;;;179.70;2252.80;;;;;;5071728;28;20099;-60
2022/01/28 09:26:42;;;;;;;23.15;15.63;;;179.70;2252.80;;;;;;5071882;28;20127;-60
2022/01/28 09:29:08;;;;;;;18.25;12.13;;;179.80;2252.80;;;;;;5071325;28;20120;-63
2022/01/28 09:31:33;;;;;;;21.85;13.60;;;179.80;2252.80;;;;;;5071650;28;20078;-60
2022/01/28 09:33:59;;;;;;;24.30;15.13;;;180.00;2252.80;;;;;;5071504;28;20043;-60
2022/01/28 09:36:25;;;;;;;29.58;20.17;;;180.00;2252.80;;;;;;5070373;28;20528;-70
2022/01/28 09:38:51;;;;;;;21.48;13.68;;;180.10;2252.80;;;;;;5071439;28;20425;-60
2022/01/28 09:41:17;;;;;;;20.80;12.88;;;180.10;2252.80;;;;;;5071282;28;20390;-60
2022/01/28 09:43:44;;;;;;;24.33;12.68;;;205.00;2252.80;;;;;;5071312;28;20040;-60
2022/01/28 09:46:10;;;;;;;25.30;15.02;;;204.90;2252.80;;;;;;5071308;28;20028;-60
2022/01/28 09:48:37;;;;;;;26.30;16.23;;;205.00;2252.80;;;;;;5071058;28;20406;-60
2022/01/28 09:51:04;;;;;;;27.25;20.05;;;205.10;2252.80;;;;;;5071393;28;20066;-59
2022/01/28 09:53:29;;;;;;;25.80;14.50;;;205.20;2252.80;;;;;;5071479;28;20025;-57
2022/01/28 09:55:56;;;;;;;33.70;22.25;;;205.30;2252.80;;;;;;5071163;28;20016;-59
2022/01/28 09:58:23;;;;;;;22.55;16.00;;;205.30;2252.80;;;;;;5071282;28;20021;-60
2022/01/28 10:00:49;;;;;;;19.42;11.90;;;205.40;2252.80;;;;;;5071161;28;20040;-64
2022/01/28 10:03:16;;;;;;;25.15;15.85;;;205.40;2252.80;;;;;;5070988;28;20017;-60
2022/01/28 10:05:43;;;;;;;100.07;67.75;;;205.50;2252.80;;;;;;5071079;28;20025;-60
2022/01/28 10:08:09;;;;;;;53.83;38.45;;;205.50;2252.80;;;;;;5070988;28;20112;-60
2022/01/28 10:10:54;;;;;;;24.27;21.80;;;205.40;2252.80;;;;;;5070950;28;20389;-59
2022/01/28 10:13:37;;;;;;;22.67;18.17;;;205.50;2252.80;;;;;;5071093;28;20095;-70
2022/01/28 10:16:16;;;;;;;14.90;11.23;;;205.50;2252.80;;;;;;5070954;28;20036;-60
2022/01/28 10:19:05;;;;;;;27.73;24.05;;;205.50;2252.80;;;;;;5070838;28;20378;-60
2022/01/28 10:21:40;;;;;;;25.92;15.93;;;205.60;2252.80;;;;;;5070766;28;20449;-59
2022/01/28 10:24:25;;;;;;;29.85;18.38;;;205.60;2252.80;;;;;;5070717;28;20040;-59
2022/01/28 10:27:07;;;;;;;26.42;16.02;;;205.70;2252.80;;;;;;5070648;28;20037;-59
2022/01/28 10:29:38;;;;;;;21.55;13.88;;;205.70;2252.80;;;;;;5070970;28;20433;-59
2022/01/28 10:32:15;;;;;;;27.90;18.10;;;230.40;2252.80;;;;;;5070427;28;20082;-60
2022/01/28 10:34:49;;;;;;;26.95;18.73;;;230.50;2227.20;;;;;;5070580;28;20024;-70
2022/01/28 10:37:32;;;;;;;30.75;20.27;;;230.60;2227.20;;;;;;5070309;28;20067;-60
2022/01/28 10:40:07;;;;;;;27.55;20.00;;;230.60;2227.20;;;;;;5070792;28;20036;-60
2022/01/28 10:42:44;;;;;;;27.48;19.17;;;230.60;2201.60;;;;;;5070206;28;20074;-60
2022/01/28 10:45:16;;;;;;;25.40;16.90;;;230.70;2201.60;;;;;;5070353;28;20113;-63
2022/01/28 10:47:50;;;;;;;24.40;16.77;;;230.80;2201.60;;;;;;5070474;28;20390;-63
2022/01/28 10:50:25;;;;;;;22.52;15.57;;;230.70;2176.00;;;;;;5070047;28;20048;-61
2022/01/28 10:53:01;;;;;;;23.58;15.35;;;230.60;2176.00;;;;;;5070582;28;20021;-60
2022/01/28 10:55:29;;;;;;;21.17;12.43;;;230.90;2150.40;;;;;;5070204;28;20036;-67
2022/01/28 10:57:58;;;;;;;19.05;11.57;;;230.80;2124.80;;;;;;5070093;28;20470;-60
2022/01/28 11:00:27;;;;;;;21.13;12.93;;;230.90;2124.80;;;;;;5069952;28;20021;-62
2022/01/28 11:02:55;;;;;;;21.30;12.77;;;230.90;2124.80;;;;;;5069957;28;20474;-60
2022/01/28 11:05:21;;;;;;;24.27;15.70;;;230.90;2124.80;;;;;;5070266;28;20056;-61
2022/01/28 11:07:48;;;;;;;19.77;13.48;;;230.90;2124.80;;;;;;5070089;28;20496;-60
2022/01/28 11:10:14;;;;;;;17.88;12.68;;;230.80;2124.80;;;;;;5069951;28;20086;-70
2022/01/28 11:12:40;;;;;;;23.30;14.10;;;231.00;2099.20;;;;;;5070147;28;20020;-59
2022/01/28 11:15:07;;;;;;;21.45;14.65;;;230.90;2124.80;;;;;;5070018;28;20449;-60
2022/01/28 11:17:36;;;;;;;19.95;13.15;;;231.00;2099.20;;;;;;5070074;28;20036;-61
2022/01/28 11:20:03;;;;;;;21.38;11.57;;;231.00;2099.20;;;;;;5068765;28;20492;-59
2022/01/28 11:22:58;;;;;;;22.52;13.65;;;231.10;2073.60;;;;;;5068728;28;20020;-60
2022/01/28 11:26:03;;;;;;;24.10;15.82;;;231.20;2073.60;;;;;;4993244;28;20038;-60
2022/01/28 11:28:56;;;;;;;17.20;11.00;;;256.10;2048.00;;;;;;4988652;28;20412;-60
2022/01/28 11:31:50;;;;;;;13.80;9.57;;;231.30;2048.00;;;;;;4997993;28;20041;-67
2022/01/28 11:34:31;;;;;;;13.23;9.93;;;256.10;2022.40;;;;;;4996916;28;20034;-60
2022/01/28 11:37:29;;;;;;;57.28;41.50;;;231.30;2048.00;;;;;;4987830;28;20061;-60
2022/01/28 11:40:10;;;;;;;74.47;41.67;;;231.30;2048.00;;;;;;4983599;28;20042;-60
2022/01/28 11:42:36;;;;;;;22.45;13.90;;;256.10;2022.40;;;;;;4991958;28;20389;-60
2022/01/28 11:45:05;;;;;;;24.38;15.00;;;256.20;1996.80;;;;;;4988689;28;20027;-71
2022/01/28 11:47:40;;;;;;;65.57;34.67;;;256.30;1996.80;;;;;;4987828;28;20146;-60
2022/01/28 11:50:11;;;;;;;18.90;14.27;;;256.40;1971.20;;;;;;4994671;28;20403;-59
2022/01/28 11:52:48;;;;;;;14.88;11.00;;;256.50;1971.20;;;;;;4995805;28;20030;-61
2022/01/28 11:55:25;;;;;;;17.33;12.70;;;256.50;1971.20;;;;;;4998558;28;20078;-61
2022/01/28 11:57:55;;;;;;;22.90;20.08;;;256.40;1971.20;;;;;;4999277;28;20448;-60
2022/01/28 12:00:29;;;;;;;38.17;26.65;;;256.40;1945.60;;;;;;5000687;28;20022;-61
2022/01/28 12:02:55;;;;;;;14.40;9.35;;;256.30;1920.00;;;;;;5067268;28;20029;-61
2022/01/28 12:05:29;;;;;;;23.88;17.27;;;256.30;1945.60;;;;;;5072030;28;20023;-65
2022/01/28 12:08:04;;;;;;;43.60;32.30;;;256.40;1945.60;;;;;;5071837;28;20029;-62
2022/01/28 12:10:33;;;;;;;15.50;9.88;;;256.40;1945.60;;;;;;5071863;28;20421;-60
2022/01/28 12:13:04;;;;;;;21.90;17.60;;;256.60;1894.40;;;;;;5071865;28;20387;-62
2022/01/28 12:16:00;;;;;;;9.30;5.95;;;256.30;1894.40;;;;;;5071931;28;20024;-60
2022/01/28 12:18:47;;;;;;;19.83;13.75;;;256.30;1894.40;;;;;;5070177;28;20470;-60
2022/01/28 12:21:18;;;;;;;16.10;9.70;;;256.60;1868.80;;;;;;5070656;28;20099;-61
2022/01/28 12:23:44;;;;;;;20.25;15.35;;;256.70;1817.60;;;;;;5071652;28;20043;-60
2022/01/28 12:26:16;;;;;;;9.02;6.97;;;256.40;1843.20;;;;;;5071709;28;20016;-71
2022/01/28 12:28:44;;;;;;;9.97;7.20;;;256.30;1843.20;;;;;;5069683;28;20020;-61
2022/01/28 12:31:13;;;;;;;7.85;5.32;;;256.50;1817.60;;;;;;5071722;28;20040;-60
2022/01/28 12:33:44;;;;;;;9.93;5.55;;;256.40;1817.60;;;;;;5069163;28;20043;-61
2022/01/28 12:36:22;;;;;;;11.15;8.18;;;256.50;1792.00;;;;;;5071380;28;20021;-60
2022/01/28 12:39:05;;;;;;;18.63;12.10;;;256.50;1792.00;;;;;;5070384;28;20509;-61
2022/01/28 12:41:40;;;;;;;21.25;12.63;;;256.80;1740.80;;;;;;5071020;28;20028;-71
2022/01/28 12:44:07;;;;;;;22.83;15.30;;;256.50;1766.40;;;;;;5070121;28;20020;-61
2022/01/28 12:46:35;;;;;;;13.45;8.77;;;256.60;1766.40;;;;;;5071498;28;20024;-63
2022/01/28 12:49:02;;;;;;;12.73;9.57;;;256.80;1766.40;;;;;;5070885;28;20051;-59
2022/01/28 12:51:28;;;;;;;16.15;10.93;;;256.80;1740.80;;;;;;5071178;28;20130;-60
2022/01/28 12:53:54;;;;;;;9.57;7.35;;;281.60;1792.00;;;;;;5070762;28;20415;-61
2022/01/28 12:56:40;;;;;;;14.43;8.85;;;281.70;1740.80;;;;;;5070943;28;20413;-63
2022/01/28 12:59:07;;;;;;;10.40;7.00;;;281.80;1740.80;;;;;;5070308;28;20533;-70
2022/01/28 13:01:33;;;;;;;13.13;8.25;;;281.90;1715.20;;;;;;5072635;28;20024;-60
2022/01/28 13:04:15;;;;;;;9.43;6.00;;;281.70;1740.80;;;;;;5072066;28;20017;-60
2022/01/28 13:06:59;;;;;;;11.80;7.57;;;281.60;1740.80;;;;;;5072079;28;20169;-71
2022/01/28 13:09:24;;;;;;;;;;;281.60;1689.60;;;;;;5070994;28;20029;-60
2022/01/28 13:11:56;;;;;;;16.35;10.30;;;281.60;1689.60;;;;;;5070444;28;20266;-60
2022/01/28 13:14:32;;;;;;;8.07;5.25;;;281.60;1689.60;;;;;;5070601;28;20032;-60
2022/01/28 13:17:00;;;;;;;20.33;13.57;;;256.80;1689.60;;;;;;5070293;28;20063;-60
2022/01/28 13:19:27;;;;;;;32.83;24.25;;;256.80;1689.60;;;;;;5069963;28;20039;-61
2022/01/28 13:21:54;;;;;;;16.35;13.20;;;256.70;1664.00;;;;;;5070076;28;20052;-61
2022/01/28 13:24:24;;;;;;;16.58;11.38;;;256.90;1689.60;;;;;;5070074;28;20025;-60
2022/01/28 13:26:54;;;;;;;21.92;13.05;;;256.80;1664.00;;;;;;5070262;28;20035;-61
2022/01/28 13:29:39;;;;;;;18.55;11.43;;;256.90;1638.40;;;;;;5070168;28;20024;-61
2022/01/28 13:32:14;;;;;;;26.25;15.70;;;256.60;1612.80;;;;;;5070099;28;20078;-61
2022/01/28 13:35:00;;;;;;;24.33;12.38;;;256.40;1638.40;;;;;;5070010;28;20027;-61
2022/01/28 13:38:01;;;;;;;39.83;23.48;;;256.30;1638.40;;;;;;5069638;28;20128;-61
2022/01/28 13:40:27;;;;;;;35.55;20.55;;;256.30;1689.60;;;;;;5059184;28;20044;-61
2022/01/28 13:43:02;;;;;;;33.88;19.65;;;256.30;1664.00;;;;;;5069959;28;20467;-60